sensor_id;sensor_type;location;lat;lon;timestamp;P1;P4;P2;P0;N10;N4;N25;N1;N05;TS
83101;SPS30;72973;51.784;4.660;2023-12-29T00:01:59;6.98;6.28;4.89;3.04;24.28;24.25;24.05;22.40;17.00;0.81
83101;SPS30;72973;51.784;4.660;2023-12-29T00:04:26;7.35;6.58;5.07;3.06;24.40;24.37;24.15;22.35;16.69;0.82
83101;SPS30;72973;51.784;4.660;2023-12-29T00:06:52;8.20;7.32;5.60;3.32;26.48;26.45;26.20;24.15;17.86;0.84
83101;SPS30;72973;51.784;4.660;2023-12-29T00:09:19;7.29;6.51;4.97;2.95;23.50;23.47;23.25;21.43;15.84;0.84
83101;SPS30;72973;51.784;4.660;2023-12-29T00:11:51;7.96;7.11;5.44;3.23;25.74;25.71;25.47;23.48;17.37;0.82
83101;SPS30;72973;51.784;4.660;2023-12-29T00:14:17;7.94;7.10;5.45;3.27;26.06;26.02;25.79;23.82;17.72;0.81
83101;SPS30;72973;51.784;4.660;2023-12-29T00:16:44;8.33;7.42;5.63;3.27;26.07;26.03;25.78;23.64;17.28;0.86
83101;SPS30;72973;51.784;4.660;2023-12-29T00:19:11;7.54;6.75;5.21;3.15;25.14;25.10;24.88;23.04;17.23;0.82
83101;SPS30;72973;51.784;4.660;2023-12-29T00:21:37;7.74;6.92;5.30;3.16;25.21;25.18;24.94;23.02;17.08;0.84
83101;SPS30;72973;51.784;4.660;2023-12-29T00:24:04;8.32;7.42;5.66;3.33;26.59;26.55;26.30;24.20;17.83;0.85
83101;SPS30;72973;51.784;4.660;2023-12-29T00:26:31;8.41;7.54;5.83;3.55;28.34;28.31;28.06;26.02;19.53;0.81
83101;SPS30;72973;51.784;4.660;2023-12-29T00:28:58;7.69;6.86;5.23;3.07;24.49;24.46;24.22;22.28;16.40;0.83
83101;SPS30;72973;51.784;4.660;2023-12-29T00:31:24;6.92;6.20;4.80;2.93;23.39;23.36;23.16;21.48;16.15;0.82
83101;SPS30;72973;51.784;4.660;2023-12-29T00:33:51;7.62;6.85;5.34;3.32;26.50;26.47;26.26;24.45;18.56;0.82
83101;SPS30;72973;51.784;4.660;2023-12-29T00:36:19;7.71;6.91;5.32;3.21;25.62;25.58;25.36;23.46;17.53;0.83
83101;SPS30;72973;51.784;4.660;2023-12-29T00:38:46;7.82;6.99;5.36;3.20;25.52;25.48;25.25;23.30;17.30;0.85
83101;SPS30;72973;51.784;4.660;2023-12-29T00:41:12;8.18;7.30;5.57;3.29;26.21;26.18;25.93;23.87;17.60;0.84
83101;SPS30;72973;51.784;4.660;2023-12-29T00:43:38;8.68;7.73;5.85;3.39;27.06;27.02;26.75;24.53;17.90;0.85
83101;SPS30;72973;51.784;4.660;2023-12-29T00:46:05;7.56;6.75;5.17;3.07;24.52;24.49;24.26;22.37;16.58;0.83
83101;SPS30;72973;51.784;4.660;2023-12-29T00:48:32;6.79;6.09;4.72;2.90;23.10;23.07;22.87;21.24;16.00;0.80
83101;SPS30;72973;51.784;4.660;2023-12-29T00:51:00;7.56;6.77;5.21;3.14;25.01;24.98;24.75;22.89;17.07;0.82
83101;SPS30;72973;51.784;4.660;2023-12-29T00:53:28;7.10;6.36;4.91;2.98;23.78;23.75;23.54;21.81;16.34;0.80
83101;SPS30;72973;51.784;4.660;2023-12-29T00:55:59;7.30;6.58;5.15;3.24;25.83;25.80;25.60;23.89;18.23;0.78
83101;SPS30;72973;51.784;4.660;2023-12-29T00:58:26;8.13;7.27;5.59;3.36;26.79;26.75;26.51;24.50;18.26;0.81
83101;SPS30;72973;51.784;4.660;2023-12-29T01:00:53;7.36;6.62;5.17;3.22;25.69;25.65;25.44;23.71;18.00;0.79
83101;SPS30;72973;51.784;4.660;2023-12-29T01:03:19;6.96;6.28;4.95;3.15;25.13;25.10;24.91;23.31;17.89;0.77
83101;SPS30;72973;51.784;4.660;2023-12-29T01:05:46;6.85;6.20;4.92;3.19;25.46;25.43;25.25;23.72;18.37;0.74
83101;SPS30;72973;51.784;4.660;2023-12-29T01:08:12;7.13;6.45;5.12;3.31;26.41;26.38;26.18;24.58;19.02;0.75
83101;SPS30;72973;51.784;4.660;2023-12-29T01:10:39;7.43;6.72;5.33;3.44;27.45;27.42;27.22;25.54;19.74;0.75
83101;SPS30;72973;51.784;4.660;2023-12-29T01:13:05;7.45;6.74;5.33;3.42;27.28;27.25;27.05;25.36;19.55;0.75
83101;SPS30;72973;51.784;4.660;2023-12-29T01:15:32;7.28;6.60;5.26;3.45;27.51;27.48;27.28;25.68;19.98;0.74
83101;SPS30;72973;51.784;4.660;2023-12-29T01:17:58;6.27;5.72;4.63;3.13;24.97;24.94;24.79;23.47;18.53;0.75
83101;SPS30;72973;51.784;4.660;2023-12-29T01:20:24;6.45;5.90;4.82;3.31;26.45;26.42;26.27;24.96;19.85;0.71
83101;SPS30;72973;51.784;4.660;2023-12-29T01:22:51;6.32;5.77;4.69;3.20;25.53;25.51;25.35;24.05;19.05;0.72
83101;SPS30;72973;51.784;4.660;2023-12-29T01:25:17;6.16;5.63;4.59;3.14;25.08;25.05;24.90;23.64;18.77;0.72
83101;SPS30;72973;51.784;4.660;2023-12-29T01:27:43;6.00;5.50;4.51;3.13;25.00;24.98;24.84;23.64;18.87;0.72
83101;SPS30;72973;51.784;4.660;2023-12-29T01:30:10;6.22;5.69;4.63;3.17;25.33;25.30;25.15;23.88;18.95;0.72
83101;SPS30;72973;51.784;4.660;2023-12-29T01:32:36;6.41;5.84;4.72;3.18;25.36;25.34;25.17;23.82;18.76;0.73
83101;SPS30;72973;51.784;4.660;2023-12-29T01:35:03;6.76;6.13;4.89;3.20;25.53;25.50;25.32;23.83;18.54;0.76
83101;SPS30;72973;51.784;4.660;2023-12-29T01:37:29;6.78;6.15;4.90;3.20;25.51;25.48;25.30;23.80;18.49;0.76
83101;SPS30;72973;51.784;4.660;2023-12-29T01:39:56;6.86;6.22;4.98;3.28;26.15;26.12;25.94;24.44;19.07;0.74
83101;SPS30;72973;51.784;4.660;2023-12-29T01:42:22;6.21;5.66;4.59;3.12;24.86;24.84;24.68;23.39;18.48;0.72
83101;SPS30;72973;51.784;4.660;2023-12-29T01:44:49;6.33;5.81;4.79;3.36;26.79;26.77;26.62;25.38;20.34;0.70
83101;SPS30;72973;51.784;4.660;2023-12-29T01:47:20;5.88;5.48;4.68;3.51;28.04;28.02;27.90;26.93;22.14;0.65
83101;SPS30;72973;51.784;4.660;2023-12-29T01:49:48;5.75;5.38;4.65;3.57;28.45;28.43;28.33;27.43;22.72;0.65
83101;SPS30;72973;51.784;4.660;2023-12-29T01:52:16;5.92;5.53;4.77;3.64;29.08;29.07;28.95;28.02;23.18;0.64
83101;SPS30;72973;51.784;4.660;2023-12-29T01:54:44;5.49;5.10;4.33;3.22;25.69;25.68;25.56;24.62;20.18;0.66
83101;SPS30;72973;51.784;4.660;2023-12-29T01:57:13;6.24;5.79;4.89;3.60;28.73;28.71;28.58;27.48;22.44;0.68
83101;SPS30;72973;51.784;4.660;2023-12-29T01:59:40;6.38;5.89;4.92;3.54;28.24;28.21;28.07;26.89;21.77;0.69
83101;SPS30;72973;51.784;4.660;2023-12-29T02:02:07;6.06;5.55;4.56;3.17;25.32;25.29;25.15;23.95;19.13;0.70
83101;SPS30;72973;51.784;4.660;2023-12-29T02:04:34;5.81;5.33;4.39;3.07;24.52;24.50;24.36;23.22;18.60;0.69
83101;SPS30;72973;51.784;4.660;2023-12-29T02:07:02;6.78;6.18;5.02;3.41;27.21;27.19;27.02;25.61;20.26;0.73
83101;SPS30;72973;51.784;4.660;2023-12-29T02:09:29;6.78;6.17;4.97;3.32;26.47;26.44;26.27;24.82;19.49;0.74
83101;SPS30;72973;51.784;4.660;2023-12-29T02:11:55;6.65;6.06;4.89;3.28;26.19;26.17;26.00;24.59;19.35;0.74
83101;SPS30;72973;51.784;4.660;2023-12-29T02:14:22;7.49;6.75;5.29;3.33;26.58;26.55;26.34;24.59;18.78;0.78
83101;SPS30;72973;51.784;4.660;2023-12-29T02:22:08;6.87;6.19;4.84;3.03;24.15;24.12;23.92;22.31;16.98;0.77
83101;SPS30;72973;51.784;4.660;2023-12-29T02:24:35;7.65;6.84;5.24;3.13;24.99;24.96;24.73;22.83;16.96;0.83
83101;SPS30;72973;51.784;4.660;2023-12-29T02:27:07;7.02;6.29;4.85;2.94;23.48;23.45;23.24;21.53;16.13;0.82
83101;SPS30;72973;51.784;4.660;2023-12-29T02:29:43;6.97;6.26;4.88;3.02;24.09;24.07;23.87;22.21;16.82;0.81
83101;SPS30;72973;51.784;4.660;2023-12-29T02:32:18;7.66;6.84;5.23;3.11;24.80;24.76;24.53;22.62;16.74;0.83
83101;SPS30;72973;51.784;4.660;2023-12-29T02:34:47;8.36;7.42;5.58;3.17;25.29;25.25;24.99;22.80;16.44;0.86
83101;SPS30;72973;51.784;4.660;2023-12-29T02:37:16;7.39;6.59;5.01;2.93;23.38;23.35;23.12;21.24;15.60;0.83
83101;SPS30;72973;51.784;4.660;2023-12-29T02:39:45;6.79;6.07;4.68;2.82;22.51;22.48;22.27;20.61;15.39;0.80
83101;SPS30;72973;51.784;4.660;2023-12-29T02:42:11;6.48;5.84;4.58;2.88;22.95;22.93;22.74;21.23;16.20;0.78
83101;SPS30;72973;51.784;4.660;2023-12-29T02:44:38;7.67;6.84;5.21;3.06;24.45;24.41;24.18;22.24;16.37;0.82
83101;SPS30;72973;51.784;4.660;2023-12-29T02:47:04;7.18;6.42;4.91;2.93;23.34;23.31;23.09;21.30;15.79;0.82
83101;SPS30;72973;51.784;4.660;2023-12-29T02:49:31;7.98;7.12;5.41;3.17;25.24;25.21;24.96;22.94;16.83;0.83
83101;SPS30;72973;51.784;4.660;2023-12-29T02:51:57;7.21;6.45;4.97;2.99;23.87;23.84;23.63;21.85;16.31;0.81
83101;SPS30;72973;51.784;4.660;2023-12-29T02:54:23;7.76;6.96;5.38;3.27;26.09;26.06;25.83;23.94;17.96;0.83
83101;SPS30;72973;51.784;4.660;2023-12-29T02:56:50;7.76;6.92;5.28;3.10;24.76;24.72;24.49;22.53;16.59;0.86
83101;SPS30;72973;51.784;4.660;2023-12-29T02:59:16;7.73;6.88;5.19;2.98;23.74;23.71;23.46;21.46;15.57;0.87
83101;SPS30;72973;51.784;4.660;2023-12-29T03:01:43;7.97;7.07;5.30;2.98;23.81;23.77;23.52;21.41;15.36;0.88
83101;SPS30;72973;51.784;4.660;2023-12-29T03:04:09;8.20;7.25;5.39;2.96;23.61;23.57;23.30;21.09;14.89;0.89
83101;SPS30;72973;51.784;4.660;2023-12-29T03:06:36;8.33;7.36;5.47;3.00;23.90;23.86;23.59;21.34;15.05;0.88
83101;SPS30;72973;51.784;4.660;2023-12-29T03:09:02;8.51;7.52;5.57;3.04;24.26;24.23;23.95;21.64;15.22;0.89
83101;SPS30;72973;51.784;4.660;2023-12-29T03:11:29;8.19;7.26;5.44;3.05;24.35;24.31;24.05;21.88;15.67;0.86
83101;SPS30;72973;51.784;4.660;2023-12-29T03:13:55;9.76;8.61;6.33;3.37;26.91;26.86;26.53;23.84;16.49;0.91
83101;SPS30;72973;51.784;4.660;2023-12-29T03:16:21;9.05;7.98;5.88;3.15;25.12;25.08;24.78;22.29;15.48;0.90
83101;SPS30;72973;51.784;4.660;2023-12-29T03:18:48;9.11;8.03;5.90;3.14;25.05;25.01;24.70;22.18;15.33;0.89
83101;SPS30;72973;51.784;4.660;2023-12-29T03:21:14;9.38;8.29;6.15;3.36;26.81;26.77;26.46;23.92;16.83;0.88
83101;SPS30;72973;51.784;4.660;2023-12-29T03:23:40;9.30;8.22;6.08;3.31;26.37;26.33;26.02;23.49;16.47;0.89
83101;SPS30;72973;51.784;4.660;2023-12-29T03:26:07;8.42;7.44;5.50;2.98;23.78;23.74;23.47;21.17;14.81;0.89
83101;SPS30;72973;51.784;4.660;2023-12-29T03:28:33;9.72;8.58;6.33;3.42;27.30;27.25;26.93;24.28;16.95;0.91
83101;SPS30;72973;51.784;4.660;2023-12-29T03:30:59;8.88;7.85;5.82;3.17;25.32;25.28;24.99;22.58;15.88;0.90
83101;SPS30;72973;51.784;4.660;2023-12-29T03:33:26;9.14;8.07;5.97;3.23;25.78;25.74;25.44;22.95;16.05;0.91
83101;SPS30;72973;51.784;4.660;2023-12-29T03:35:52;8.96;7.94;5.92;3.30;26.28;26.24;25.95;23.56;16.77;0.89
83101;SPS30;72973;51.784;4.660;2023-12-29T03:38:19;9.57;8.45;6.24;3.37;26.89;26.84;26.53;23.91;16.70;0.91
83101;SPS30;72973;51.784;4.660;2023-12-29T03:40:45;9.02;7.98;5.94;3.28;26.12;26.08;25.79;23.36;16.54;0.88
83101;SPS30;72973;51.784;4.660;2023-12-29T03:43:11;9.25;8.19;6.11;3.40;27.10;27.05;26.76;24.29;17.29;0.90
83101;SPS30;72973;51.784;4.660;2023-12-29T03:45:38;9.58;8.46;6.27;3.42;27.24;27.20;26.88;24.28;17.05;0.91
83101;SPS30;72973;51.784;4.660;2023-12-29T03:48:04;9.37;8.30;6.19;3.44;27.46;27.42;27.12;24.62;17.52;0.88
83101;SPS30;72973;51.784;4.660;2023-12-29T03:50:31;9.72;8.62;6.45;3.61;28.79;28.74;28.43;25.86;18.48;0.88
83101;SPS30;72973;51.784;4.660;2023-12-29T03:52:57;9.52;8.41;6.22;3.38;26.98;26.94;26.63;24.04;16.85;0.89
83101;SPS30;72973;51.784;4.660;2023-12-29T03:55:24;9.52;8.41;6.23;3.40;27.08;27.03;26.72;24.14;16.95;0.87
83101;SPS30;72973;51.784;4.660;2023-12-29T03:57:50;9.15;8.11;6.04;3.36;26.76;26.72;26.42;23.97;17.04;0.87
83101;SPS30;72973;51.784;4.660;2023-12-29T04:00:16;8.51;7.55;5.68;3.23;25.73;25.70;25.43;23.20;16.73;0.85
83101;SPS30;72973;51.784;4.660;2023-12-29T04:02:43;8.14;7.22;5.40;3.03;24.15;24.11;23.85;21.70;15.52;0.85
83101;SPS30;72973;51.784;4.660;2023-12-29T04:05:09;9.12;8.05;5.96;3.23;25.79;25.74;25.44;22.96;16.08;0.90
83101;SPS30;72973;51.784;4.660;2023-12-29T04:07:36;9.77;8.62;6.34;3.39;27.03;26.98;26.66;23.96;16.61;0.91
83101;SPS30;72973;51.784;4.660;2023-12-29T04:10:06;8.39;7.40;5.45;2.93;23.36;23.32;23.04;20.74;14.42;0.93
83101;SPS30;72973;51.784;4.660;2023-12-29T04:12:34;9.61;8.48;6.25;3.36;26.80;26.76;26.44;23.80;16.56;0.93
83101;SPS30;72973;51.784;4.660;2023-12-29T04:15:02;9.75;8.59;6.30;3.34;26.67;26.62;26.30;23.59;16.26;0.92
83101;SPS30;72973;51.784;4.660;2023-12-29T04:17:29;9.35;8.23;6.01;3.15;25.09;25.05;24.73;22.11;15.09;0.93
83101;SPS30;72973;51.784;4.660;2023-12-29T04:19:56;8.52;7.50;5.49;2.89;23.04;23.00;22.71;20.33;13.94;0.92
83101;SPS30;72973;51.784;4.660;2023-12-29T04:22:22;8.18;7.23;5.36;2.92;23.32;23.29;23.02;20.80;14.62;0.90
83101;SPS30;72973;51.784;4.660;2023-12-29T04:24:49;9.03;7.98;5.91;3.22;25.64;25.60;25.30;22.85;16.03;0.90
83101;SPS30;72973;51.784;4.660;2023-12-29T04:27:16;8.74;7.71;5.69;3.05;24.36;24.32;24.03;21.62;15.04;0.93
83101;SPS30;72973;51.784;4.660;2023-12-29T04:29:43;9.24;8.14;5.98;3.17;25.29;25.24;24.93;22.37;15.42;0.95
83101;SPS30;72973;51.784;4.660;2023-12-29T04:32:11;9.34;8.20;5.96;3.08;24.52;24.47;24.15;21.51;14.52;0.97
83101;SPS30;72973;51.784;4.660;2023-12-29T04:34:37;9.27;8.16;5.97;3.15;25.09;25.05;24.73;22.15;15.19;0.94
83101;SPS30;72973;51.784;4.660;2023-12-29T04:37:03;9.64;8.50;6.25;3.33;26.57;26.52;26.20;23.53;16.28;0.91
83101;SPS30;72973;51.784;4.660;2023-12-29T04:39:30;9.96;8.77;6.43;3.39;27.07;27.02;26.68;23.91;16.43;0.92
83101;SPS30;72973;51.784;4.660;2023-12-29T04:41:57;9.53;8.39;6.16;3.26;26.01;25.96;25.64;23.00;15.84;0.92
83101;SPS30;72973;51.784;4.660;2023-12-29T04:44:23;10.08;8.88;6.50;3.42;27.29;27.24;26.90;24.09;16.52;0.93
83101;SPS30;72973;51.784;4.660;2023-12-29T04:46:50;9.72;8.55;6.25;3.27;26.09;26.04;25.71;22.98;15.69;0.93
83101;SPS30;72973;51.784;4.660;2023-12-29T04:49:16;10.66;9.35;6.77;3.45;27.52;27.47;27.10;24.05;16.09;0.96
83101;SPS30;72973;51.784;4.660;2023-12-29T04:51:42;9.66;8.49;6.17;3.19;25.44;25.39;25.06;22.32;15.09;0.95
83101;SPS30;72973;51.784;4.660;2023-12-29T04:54:09;10.31;9.05;6.58;3.39;27.03;26.98;26.63;23.70;15.99;0.95
83101;SPS30;72973;51.784;4.660;2023-12-29T04:56:36;9.62;8.48;6.23;3.32;26.45;26.40;26.08;23.42;16.18;0.90
83101;SPS30;72973;51.784;4.660;2023-12-29T04:59:02;10.37;9.13;6.68;3.52;28.08;28.03;27.68;24.79;17.00;0.92
83101;SPS30;72973;51.784;4.660;2023-12-29T05:01:29;9.68;8.51;6.20;3.21;25.59;25.54;25.21;22.47;15.22;0.95
83101;SPS30;72973;51.784;4.660;2023-12-29T05:03:55;10.18;8.96;6.54;3.41;27.19;27.14;26.80;23.94;16.30;0.94
83101;SPS30;72973;51.784;4.660;2023-12-29T05:06:22;9.94;8.75;6.40;3.37;26.90;26.86;26.52;23.75;16.29;0.94
83101;SPS30;72973;51.784;4.660;2023-12-29T05:08:48;10.22;8.98;6.53;3.37;26.83;26.78;26.43;23.54;15.89;0.97
83101;SPS30;72973;51.784;4.660;2023-12-29T05:11:14;10.69;9.38;6.81;3.49;27.81;27.75;27.39;24.34;16.34;0.97
83101;SPS30;72973;51.784;4.660;2023-12-29T05:13:41;9.36;8.24;6.04;3.20;25.50;25.46;25.14;22.54;15.51;0.93
83101;SPS30;72973;51.784;4.660;2023-12-29T05:16:07;9.27;8.15;5.97;3.14;25.04;25.00;24.68;22.10;15.14;0.94
83101;SPS30;72973;51.784;4.660;2023-12-29T05:18:33;9.47;8.37;6.22;3.41;27.17;27.13;26.82;24.26;17.11;0.90
83101;SPS30;72973;51.784;4.660;2023-12-29T05:21:00;10.38;9.18;6.82;3.75;29.89;29.84;29.50;26.70;18.85;0.91
83101;SPS30;72973;51.784;4.660;2023-12-29T05:23:27;8.74;7.74;5.76;3.19;25.47;25.43;25.15;22.81;16.19;0.89
83101;SPS30;72973;51.784;4.660;2023-12-29T05:25:53;8.56;7.59;5.69;3.20;25.55;25.51;25.24;22.98;16.49;0.87
83101;SPS30;72973;51.784;4.660;2023-12-29T05:28:19;9.41;8.36;6.29;3.57;28.47;28.43;28.13;25.67;18.51;0.87
83101;SPS30;72973;51.784;4.660;2023-12-29T05:30:46;9.61;8.50;6.32;3.48;27.78;27.74;27.43;24.84;17.57;0.89
83101;SPS30;72973;51.784;4.660;2023-12-29T05:33:12;8.51;7.55;5.66;3.19;25.41;25.37;25.10;22.86;16.40;0.86
83101;SPS30;72973;51.784;4.660;2023-12-29T05:35:39;8.93;7.92;5.93;3.32;26.51;26.47;26.19;23.82;17.05;0.85
83101;SPS30;72973;51.784;4.660;2023-12-29T05:38:05;10.15;8.98;6.68;3.68;29.33;29.28;28.95;26.22;18.54;0.88
83101;SPS30;72973;51.784;4.660;2023-12-29T05:40:31;8.18;7.27;5.48;3.14;25.01;24.98;24.72;22.60;16.37;0.84
83101;SPS30;72973;51.784;4.660;2023-12-29T05:42:58;8.34;7.43;5.63;3.27;26.11;26.08;25.82;23.69;17.32;0.84
83101;SPS30;72973;51.784;4.660;2023-12-29T05:45:24;7.96;7.09;5.36;3.09;24.68;24.65;24.40;22.35;16.27;0.85
83101;SPS30;72973;51.784;4.660;2023-12-29T05:47:50;8.50;7.56;5.72;3.29;26.22;26.18;25.92;23.72;17.24;0.83
83101;SPS30;72973;51.784;4.660;2023-12-29T05:50:17;8.42;7.46;5.58;3.12;24.92;24.88;24.61;22.38;15.99;0.86
83101;SPS30;72973;51.784;4.660;2023-12-29T05:52:43;8.37;7.42;5.55;3.11;24.82;24.79;24.52;22.30;15.95;0.87
83101;SPS30;72973;51.784;4.660;2023-12-29T05:55:10;7.80;6.94;5.25;3.03;24.19;24.16;23.92;21.91;15.96;0.84
83101;SPS30;72973;51.784;4.660;2023-12-29T05:57:36;8.54;7.58;5.70;3.24;25.87;25.83;25.56;23.33;16.84;0.84
83101;SPS30;72973;51.784;4.660;2023-12-29T06:00:02;7.45;6.65;5.08;3.01;23.97;23.94;23.71;21.84;16.14;0.83
83101;SPS30;72973;51.784;4.660;2023-12-29T06:02:30;7.08;6.36;4.96;3.08;24.59;24.56;24.36;22.68;17.21;0.76
83101;SPS30;72973;51.784;4.660;2023-12-29T06:04:57;7.23;6.51;5.08;3.17;25.27;25.24;25.04;23.33;17.73;0.76
83101;SPS30;72973;51.784;4.660;2023-12-29T06:07:23;7.05;6.35;4.96;3.11;24.82;24.79;24.59;22.94;17.47;0.77
83101;SPS30;72973;51.784;4.660;2023-12-29T06:09:49;6.91;6.27;5.00;3.27;26.09;26.07;25.88;24.36;18.94;0.73
83101;SPS30;72973;51.784;4.660;2023-12-29T06:12:16;6.67;6.11;5.00;3.46;27.62;27.60;27.44;26.10;20.80;0.69
83101;SPS30;72973;51.784;4.660;2023-12-29T06:14:42;5.36;4.96;4.18;3.05;24.33;24.31;24.19;23.23;18.91;0.65
83101;SPS30;72973;51.784;4.660;2023-12-29T06:17:08;4.69;4.37;3.74;2.82;22.51;22.50;22.40;21.63;17.82;0.63
83101;SPS30;72973;51.784;4.660;2023-12-29T06:19:35;5.41;5.03;4.29;3.21;25.61;25.59;25.48;24.58;20.18;0.65
83101;SPS30;72973;51.784;4.660;2023-12-29T06:22:01;5.68;5.27;4.46;3.29;26.25;26.23;26.11;25.12;20.53;0.64
83101;SPS30;72973;51.784;4.660;2023-12-29T06:24:28;5.21;4.85;4.14;3.10;24.77;24.76;24.65;23.78;19.55;0.62
83101;SPS30;72973;51.784;4.660;2023-12-29T06:26:54;5.42;5.09;4.45;3.48;27.78;27.76;27.67;26.88;22.41;0.61
83101;SPS30;72973;51.784;4.660;2023-12-29T06:29:20;5.34;5.14;4.75;4.04;32.28;32.27;32.21;31.69;27.15;0.54
83101;SPS30;72973;51.784;4.660;2023-12-29T06:31:47;5.22;5.13;4.95;4.47;35.71;35.70;35.67;35.39;30.82;0.50
83101;SPS30;72973;51.784;4.660;2023-12-29T06:34:13;4.00;4.00;4.00;3.78;30.20;30.20;30.19;30.14;26.55;0.47
83101;SPS30;72973;51.784;4.660;2023-12-29T06:36:40;4.40;4.40;4.40;4.16;33.21;33.20;33.20;33.14;29.19;0.47
83101;SPS30;72973;51.784;4.660;2023-12-29T06:39:06;4.47;4.47;4.47;4.23;33.73;33.73;33.72;33.66;29.65;0.45
83101;SPS30;72973;51.784;4.660;2023-12-29T06:41:33;4.32;4.32;4.32;4.08;32.59;32.59;32.58;32.52;28.65;0.44
83101;SPS30;72973;51.784;4.660;2023-12-29T06:43:59;3.83;3.83;3.83;3.62;28.90;28.90;28.89;28.84;25.41;0.45
83101;SPS30;72973;51.784;4.660;2023-12-29T06:46:26;3.77;3.71;3.58;3.23;25.80;25.79;25.77;25.57;22.27;0.51
83101;SPS30;72973;51.784;4.660;2023-12-29T06:48:53;4.33;4.14;3.78;3.16;25.22;25.21;25.15;24.69;21.03;0.54
83101;SPS30;72973;51.784;4.660;2023-12-29T06:51:19;4.78;4.53;4.02;3.23;25.77;25.75;25.68;25.05;21.07;0.59
83101;SPS30;72973;51.784;4.660;2023-12-29T06:53:48;5.46;5.14;4.52;3.56;28.41;28.40;28.30;27.53;23.02;0.61
83101;SPS30;72973;51.784;4.660;2023-12-29T06:56:15;5.11;4.87;4.41;3.64;29.04;29.03;28.96;28.36;24.07;0.58
83101;SPS30;72973;51.784;4.660;2023-12-29T06:58:42;5.22;5.00;4.57;3.82;30.50;30.49;30.42;29.86;25.45;0.56
83101;SPS30;72973;51.784;4.660;2023-12-29T07:01:10;5.29;5.07;4.66;3.93;31.37;31.36;31.29;30.76;26.27;0.54
83101;SPS30;72973;51.784;4.660;2023-12-29T07:03:36;4.49;4.44;4.34;3.99;31.84;31.83;31.81;31.64;27.67;0.49
83101;SPS30;72973;51.784;4.660;2023-12-29T07:06:03;4.55;4.40;4.11;3.55;28.35;28.34;28.29;27.90;24.00;0.52
83101;SPS30;72973;51.784;4.660;2023-12-29T07:08:29;4.20;4.00;3.62;2.98;23.79;23.78;23.72;23.23;19.70;0.57
83101;SPS30;72973;51.784;4.660;2023-12-29T07:10:56;3.89;3.70;3.32;2.71;21.62;21.61;21.55;21.07;17.82;0.59
83101;SPS30;72973;51.784;4.660;2023-12-29T07:13:22;3.87;3.66;3.25;2.61;20.85;20.84;20.78;20.27;17.06;0.61
83101;SPS30;72973;51.784;4.660;2023-12-29T07:15:49;3.98;3.76;3.33;2.65;21.15;21.14;21.07;20.53;17.23;0.61
83101;SPS30;72973;51.784;4.660;2023-12-29T07:18:15;3.83;3.64;3.26;2.65;21.16;21.16;21.10;20.62;17.41;0.59
83101;SPS30;72973;51.784;4.660;2023-12-29T07:20:42;3.82;3.65;3.31;2.73;21.81;21.80;21.75;21.31;18.09;0.57
83101;SPS30;72973;51.784;4.660;2023-12-29T07:23:08;3.92;3.71;3.30;2.65;21.13;21.12;21.06;20.54;17.27;0.60
83101;SPS30;72973;51.784;4.660;2023-12-29T07:25:34;3.98;3.78;3.38;2.73;21.80;21.79;21.73;21.22;17.90;0.58
83101;SPS30;72973;51.784;4.660;2023-12-29T07:28:01;3.99;3.81;3.47;2.89;23.09;23.09;23.03;22.60;19.23;0.54
83101;SPS30;72973;51.784;4.660;2023-12-29T07:30:27;3.71;3.56;3.25;2.73;21.80;21.79;21.75;21.35;18.21;0.55
83101;SPS30;72973;51.784;4.660;2023-12-29T07:32:54;3.95;3.80;3.50;2.97;23.67;23.66;23.62;23.23;19.87;0.54
83101;SPS30;72973;51.784;4.660;2023-12-29T07:35:20;4.20;4.06;3.79;3.27;26.09;26.08;26.03;25.67;22.07;0.53
83101;SPS30;72973;51.784;4.660;2023-12-29T07:37:46;4.37;4.22;3.93;3.38;27.02;27.01;26.96;26.58;22.84;0.54
83101;SPS30;72973;51.784;4.660;2023-12-29T07:40:13;4.10;3.96;3.70;3.19;25.48;25.47;25.43;25.08;21.57;0.55
83101;SPS30;72973;51.784;4.660;2023-12-29T07:42:40;4.08;3.94;3.67;3.17;25.27;25.26;25.22;24.86;21.37;0.53
83101;SPS30;72973;51.784;4.660;2023-12-29T07:45:08;4.01;3.85;3.54;3.00;23.95;23.94;23.89;23.49;20.09;0.55
83101;SPS30;72973;51.784;4.660;2023-12-29T07:47:35;3.69;3.57;3.33;2.88;22.98;22.97;22.93;22.62;19.45;0.55
83101;SPS30;72973;51.784;4.660;2023-12-29T07:50:01;3.68;3.58;3.38;2.96;23.62;23.61;23.58;23.30;20.12;0.52
83101;SPS30;72973;51.784;4.660;2023-12-29T07:52:29;3.49;3.42;3.29;2.96;23.67;23.66;23.64;23.44;20.39;0.50
83101;SPS30;72973;51.784;4.660;2023-12-29T07:54:56;2.89;2.89;2.89;2.73;21.76;21.75;21.75;21.70;19.11;0.49
83101;SPS30;72973;51.784;4.660;2023-12-29T07:57:22;3.22;3.16;3.05;2.76;22.07;22.06;22.04;21.88;19.06;0.50
83101;SPS30;72973;51.784;4.660;2023-12-29T07:59:49;3.30;3.22;3.05;2.70;21.53;21.53;21.50;21.27;18.41;0.53
83101;SPS30;72973;51.784;4.660;2023-12-29T08:02:15;3.21;3.10;2.89;2.50;19.93;19.93;19.89;19.62;16.87;0.54
83101;SPS30;72973;51.784;4.660;2023-12-29T08:04:42;3.34;3.22;2.99;2.56;20.41;20.40;20.36;20.06;17.20;0.54
83101;SPS30;72973;51.784;4.660;2023-12-29T08:07:08;3.27;3.14;2.89;2.43;19.43;19.42;19.38;19.05;16.27;0.55
83101;SPS30;72973;51.784;4.660;2023-12-29T08:09:35;3.42;3.26;2.95;2.44;19.48;19.47;19.42;19.03;16.16;0.57
83101;SPS30;72973;51.784;4.660;2023-12-29T08:12:02;2.89;2.78;2.57;2.18;17.41;17.41;17.37;17.09;14.63;0.55
83101;SPS30;72973;51.784;4.660;2023-12-29T08:14:28;3.14;3.01;2.74;2.28;18.23;18.22;18.18;17.83;15.18;0.57
83101;SPS30;72973;51.784;4.660;2023-12-29T08:16:55;3.07;2.92;2.64;2.16;17.26;17.25;17.20;16.84;14.26;0.58
83101;SPS30;72973;51.784;4.660;2023-12-29T08:19:22;3.21;3.07;2.79;2.31;18.44;18.43;18.39;18.02;15.32;0.57
83101;SPS30;72973;51.784;4.660;2023-12-29T08:21:50;3.08;2.95;2.71;2.28;18.21;18.20;18.16;17.85;15.24;0.57
83101;SPS30;72973;51.784;4.660;2023-12-29T08:24:17;3.17;3.02;2.72;2.22;17.72;17.71;17.66;17.28;14.62;0.60
83101;SPS30;72973;51.784;4.660;2023-12-29T08:26:45;3.05;2.91;2.63;2.17;17.32;17.31;17.27;16.92;14.36;0.59
83101;SPS30;72973;51.784;4.660;2023-12-29T08:29:13;2.81;2.68;2.43;2.01;16.08;16.08;16.04;15.72;13.35;0.58
83101;SPS30;72973;51.784;4.660;2023-12-29T08:31:41;2.98;2.84;2.56;2.11;16.81;16.81;16.76;16.41;13.90;0.59
83101;SPS30;72973;51.784;4.660;2023-12-29T08:34:08;3.02;2.85;2.52;2.01;16.05;16.04;15.99;15.58;13.07;0.61
83101;SPS30;72973;51.784;4.660;2023-12-29T08:36:34;3.28;3.09;2.72;2.14;17.12;17.11;17.05;16.58;13.87;0.63
83101;SPS30;72973;51.784;4.660;2023-12-29T08:39:01;3.22;3.05;2.70;2.17;17.31;17.30;17.25;16.82;14.14;0.61
83101;SPS30;72973;51.784;4.660;2023-12-29T08:41:28;2.96;2.80;2.49;1.99;15.90;15.90;15.85;15.46;13.00;0.62
83101;SPS30;72973;51.784;4.660;2023-12-29T08:43:55;3.13;2.97;2.66;2.15;17.18;17.18;17.13;16.73;14.12;0.61
83101;SPS30;72973;51.784;4.660;2023-12-29T08:46:21;3.13;2.96;2.62;2.10;16.73;16.73;16.68;16.26;13.66;0.61
83101;SPS30;72973;51.784;4.660;2023-12-29T08:48:48;2.82;2.65;2.32;1.81;14.44;14.43;14.38;13.97;11.64;0.62
83101;SPS30;72973;51.784;4.660;2023-12-29T08:51:15;2.91;2.75;2.43;1.93;15.37;15.36;15.31;14.91;12.49;0.60
83101;SPS30;72973;51.784;4.660;2023-12-29T08:53:41;2.80;2.64;2.33;1.84;14.72;14.71;14.67;14.28;11.96;0.59
83101;SPS30;72973;51.784;4.660;2023-12-29T08:56:07;3.19;3.01;2.66;2.12;16.93;16.92;16.87;16.43;13.79;0.60
83101;SPS30;72973;51.784;4.660;2023-12-29T08:58:34;3.01;2.84;2.51;1.99;15.91;15.90;15.85;15.44;12.94;0.61
83101;SPS30;72973;51.784;4.660;2023-12-29T09:01:00;2.89;2.73;2.42;1.94;15.47;15.46;15.42;15.03;12.64;0.61
83101;SPS30;72973;51.784;4.660;2023-12-29T09:03:26;3.07;2.90;2.56;2.03;16.22;16.21;16.16;15.74;13.20;0.62
83101;SPS30;72973;51.784;4.660;2023-12-29T09:05:53;2.96;2.81;2.51;2.04;16.27;16.27;16.22;15.85;13.37;0.59
83101;SPS30;72973;51.784;4.660;2023-12-29T09:08:20;2.76;2.62;2.34;1.90;15.13;15.12;15.08;14.73;12.42;0.60
83101;SPS30;72973;51.784;4.660;2023-12-29T09:10:46;3.75;3.54;3.12;2.48;19.76;19.75;19.69;19.17;16.06;0.63
83101;SPS30;72973;51.784;4.660;2023-12-29T09:13:13;3.75;3.49;2.98;2.23;17.79;17.78;17.70;17.07;14.03;0.67
83101;SPS30;72973;51.784;4.660;2023-12-29T09:15:39;3.55;3.32;2.86;2.18;17.36;17.35;17.28;16.72;13.82;0.66